Time;durP1;ratioP1;P1;durP2;ratioP2;P2;SDS_P1;SDS_P2;PMS_P1;PMS_P2;Temp;Humidity;BMP_temperature;BMP_pressure;BME280_temperature;BME280_humidity;BME280_pressure;Samples;Min_cycle;Max_cycle;Signal;HPM_P1;HPM_P2
2023/03/15 00:00:22;;;;;;;;;;;;;;;7.89;81.71;100951.56;7364324;19;19926;-62
2023/03/15 00:02:49;;;;;;;;;;;;;;;7.86;81.95;100952.66;7364268;19;19915;-61
2023/03/15 00:05:16;;;;;;;;;;;;;;;7.85;82.08;100956.25;7365445;19;19919;-60
2023/03/15 00:07:43;;;;;;;;;;;;;;;7.86;82.27;100957.91;7364705;19;19914;-58
2023/03/15 00:10:10;;;;;;;;;;;;;;;7.83;81.95;100960.78;7364051;19;20647;-61
2023/03/15 00:12:37;;;;;;;;;;;;;;;7.81;81.99;100970.56;7366056;19;20340;-65
2023/03/15 00:15:05;;;;;;;;;;;;;;;7.79;81.75;100982.94;7362691;19;20593;-60
2023/03/15 00:17:33;;;;;;;;;;;;;;;7.76;81.95;100983.22;7365958;19;20303;-59
2023/03/15 00:20:00;;;;;;;;;;;;;;;7.70;81.97;100978.50;7363646;19;19927;-61
2023/03/15 00:22:27;;;;;;;;;;;;;;;7.68;82.64;100989.09;7361402;19;19950;-59
2023/03/15 00:24:54;;;;;;;;;;;;;;;7.68;83.12;100993.50;7362492;19;19922;-61
2023/03/15 00:27:22;;;;;;;;;;;;;;;7.68;83.77;100991.72;7362019;19;19922;-61
2023/03/15 00:29:49;;;;;;;;;;;;;;;7.62;83.13;100992.22;7363361;19;19930;-62
2023/03/15 00:32:16;;;;;;;;;;;;;;;7.62;83.49;101000.09;7362300;19;19926;-61
2023/03/15 00:34:47;;;;;;;;;;;;;;;7.62;83.48;100999.25;7363547;19;19927;-58
2023/03/15 00:37:15;;;;;;;;;;;;;;;7.60;83.22;101009.03;7363397;19;19919;-61
2023/03/15 00:39:44;;;;;;;;;;;;;;;7.50;83.11;101001.13;7358151;19;19914;-60
2023/03/15 00:42:14;;;;;;;;;;;;;;;7.48;84.00;101012.69;7363823;19;19926;-59
2023/03/15 00:44:42;;;;;;;;;;;;;;;7.47;84.14;101013.63;7363082;19;19979;-62
2023/03/15 00:47:11;;;;;;;;;;;;;;;7.46;83.87;101018.06;7358563;19;19929;-60
2023/03/15 00:49:38;;;;;;;;;;;;;;;7.45;83.60;101026.03;7359389;19;20020;-59
2023/03/15 00:52:05;;;;;;;;;;;;;;;7.46;84.07;101028.53;7361450;19;19926;-60
2023/03/15 00:54:32;;;;;;;;;;;;;;;7.47;84.11;101027.56;7361289;19;19931;-60
2023/03/15 00:57:00;;;;;;;;;;;;;;;7.46;83.87;101027.69;7357229;19;19933;-62
2023/03/15 00:59:28;;;;;;;;;;;;;;;7.46;83.95;101036.38;7361104;19;20021;-60
2023/03/15 01:01:54;;;;;;;;;;;;;;;7.45;83.88;101026.03;7360309;19;20380;-59
2023/03/15 01:04:21;;;;;;;;;;;;;;;7.38;83.42;101028.31;7360249;19;20529;-59
2023/03/15 01:06:48;;;;;;;;;;;;;;;7.33;83.31;101025.25;7361496;19;19934;-61
2023/03/15 01:09:16;;;;;;;;;;;;;;;7.24;83.55;101032.09;7356633;19;21517;-63
2023/03/15 01:11:43;;;;;;;;;;;;;;;7.20;83.63;101035.91;7362596;19;20303;-61
2023/03/15 01:14:10;;;;;;;;;;;;;;;7.21;84.10;101042.00;7362846;19;20264;-60
2023/03/15 01:16:37;;;;;;;;;;;;;;;7.22;84.87;101044.47;7368412;19;20173;-61
2023/03/15 01:19:04;;;;;;;;;;;;;;;7.21;84.47;101034.94;7359837;19;19940;-62
2023/03/15 01:21:31;;;;;;;;;;;;;;;7.22;84.71;101039.22;7359712;19;19926;-59
2023/03/15 01:23:58;;;;;;;;;;;;;;;7.21;85.51;101034.94;7358709;19;19933;-60
2023/03/15 01:26:25;;;;;;;;;;;;;;;7.20;85.63;101042.94;7360397;19;20275;-62
2023/03/15 01:28:52;;;;;;;;;;;;;;;7.17;85.10;101036.16;7361424;19;20583;-62
2023/03/15 01:31:21;;;;;;;;;;;;;;;7.15;84.49;101039.88;7361114;19;20219;-62
2023/03/15 01:33:48;;;;;;;;;;;;;;;7.13;84.76;101037.38;7361292;19;19926;-60
2023/03/15 01:36:15;;;;;;;;;;;;;;;7.15;85.48;101042.47;7359182;19;19919;-59
2023/03/15 01:38:42;;;;;;;;;;;;;;;7.14;85.26;101049.50;7358850;19;19931;-62
2023/03/15 01:41:11;;;;;;;;;;;;;;;7.13;84.46;101055.69;7362369;19;19914;-65
2023/03/15 01:43:38;;;;;;;;;;;;;;;7.13;84.50;101054.84;7358638;19;19990;-62
2023/03/15 01:46:08;;;;;;;;;;;;;;;7.09;84.93;101059.50;7357776;19;19922;-60
2023/03/15 01:48:38;;;;;;;;;;;;;;;7.06;84.89;101064.16;7360487;19;20200;-61
2023/03/15 01:51:08;;;;;;;;;;;;;;;7.05;84.94;101059.88;7357773;19;19923;-59
2023/03/15 01:53:36;;;;;;;;;;;;;;;7.03;84.76;101060.00;7354146;19;20327;-60
2023/03/15 01:56:04;;;;;;;;;;;;;;;7.04;84.60;101073.91;7358638;19;20302;-62
2023/03/15 01:58:32;;;;;;;;;;;;;;;7.03;84.91;101077.47;7355076;19;20640;-61
2023/03/15 02:01:02;;;;;;;;;;;;;;;7.03;85.75;101078.31;7359979;19;19952;-60
2023/03/15 02:03:34;;;;;;;;;;;;;;;7.01;85.33;101090.66;7358814;19;19926;-61
2023/03/15 02:06:04;;;;;;;;;;;;;;;6.98;84.82;101084.88;7358554;19;20427;-62
2023/03/15 02:08:34;;;;;;;;;;;;;;;6.95;85.03;101088.56;7356445;19;20025;-60
2023/03/15 02:11:03;;;;;;;;;;;;;;;6.93;85.07;101093.09;7359842;19;20784;-61
2023/03/15 02:13:31;;;;;;;;;;;;;;;6.91;85.24;101094.19;7352595;19;19926;-63
2023/03/15 02:15:58;;;;;;;;;;;;;;;6.93;85.33;101089.63;7358608;19;20356;-58
2023/03/15 02:18:25;;;;;;;;;;;;;;;6.94;85.48;101089.53;7357516;19;19915;-60
2023/03/15 02:20:59;;;;;;;;;;;;;;;6.94;85.51;101093.91;7356517;19;19929;-61
2023/03/15 02:23:27;;;;;;;;;;;;;;;6.88;85.42;101085.63;7356094;19;19953;-63
2023/03/15 02:26:01;;;;;;;;;;;;;;;6.85;85.10;101085.03;7358717;19;19942;-62
2023/03/15 02:28:29;;;;;;;;;;;;;;;6.86;85.45;101082.28;7357813;19;20437;-61
2023/03/15 02:30:56;;;;;;;;;;;;;;;6.85;85.19;101087.66;7358320;19;19918;-61
2023/03/15 02:33:26;;;;;;;;;;;;;;;6.80;84.78;101097.66;7358584;19;19927;-59
2023/03/15 02:35:53;;;;;;;;;;;;;;;6.76;84.55;101096.19;7358992;19;19927;-62
2023/03/15 02:38:22;;;;;;;;;;;;;;;6.72;84.65;101094.78;7352567;19;20263;-61
2023/03/15 02:40:51;;;;;;;;;;;;;;;6.71;85.61;101099.19;7359309;19;20296;-60
2023/03/15 02:43:22;;;;;;;;;;;;;;;6.68;84.93;101107.28;7359150;19;19923;-61
2023/03/15 02:45:49;;;;;;;;;;;;;;;6.68;85.29;101109.06;7358984;19;19926;-62
2023/03/15 02:48:17;;;;;;;;;;;;;;;6.64;85.43;101105.03;7357711;19;19910;-61
2023/03/15 02:50:44;;;;;;;;;;;;;;;6.59;85.45;101108.00;7356865;19;19911;-60
2023/03/15 02:53:11;;;;;;;;;;;;;;;6.56;85.44;101110.84;7355035;19;20630;-61
2023/03/15 02:55:38;;;;;;;;;;;;;;;6.56;85.49;101118.69;7352518;19;19915;-61
2023/03/15 02:58:05;;;;;;;;;;;;;;;6.52;86.14;101117.28;7353481;19;19949;-60
2023/03/15 03:00:32;;;;;;;;;;;;;;;6.49;85.87;101119.28;7354960;19;20331;-60
2023/03/15 03:02:59;;;;;;;;;;;;;;;6.44;85.65;101117.88;7358772;19;19919;-62
2023/03/15 03:05:26;;;;;;;;;;;;;;;6.42;85.92;101114.53;7357510;19;20634;-60
2023/03/15 03:07:54;;;;;;;;;;;;;;;6.42;86.06;101119.78;7351556;19;20520;-61
2023/03/15 03:10:21;;;;;;;;;;;;;;;6.45;86.72;101124.75;7356786;19;19919;-61
2023/03/15 03:12:52;;;;;;;;;;;;;;;6.47;86.43;101124.63;7355775;19;19923;-62
2023/03/15 03:15:19;;;;;;;;;;;;;;;6.45;85.57;101111.69;7357030;19;19927;-59
2023/03/15 03:17:46;;;;;;;;;;;;;;;6.43;85.67;101108.38;7358059;19;19922;-58
2023/03/15 03:20:13;;;;;;;;;;;;;;;6.39;85.18;101103.50;7357792;19;19930;-65
2023/03/15 03:22:41;;;;;;;;;;;;;;;6.35;85.03;101118.56;7356869;19;19927;-60
2023/03/15 03:25:09;;;;;;;;;;;;;;;6.35;85.27;101108.13;7356666;19;19995;-59
2023/03/15 03:27:36;;;;;;;;;;;;;;;6.35;85.34;101115.13;7355900;19;19919;-59
2023/03/15 03:30:04;;;;;;;;;;;;;;;6.31;85.02;101119.75;7356816;19;19922;-61
2023/03/15 03:32:31;;;;;;;;;;;;;;;6.28;85.31;101125.22;7353893;19;20472;-61
2023/03/15 03:34:58;;;;;;;;;;;;;;;6.24;85.46;101121.19;7356845;19;19918;-61
2023/03/15 03:37:25;;;;;;;;;;;;;;;6.22;85.81;101123.09;7358456;19;19938;-59
2023/03/15 03:39:51;;;;;;;;;;;;;;;6.22;85.84;101133.53;7354532;19;19919;-60
2023/03/15 03:42:19;;;;;;;;;;;;;;;6.19;85.64;101135.56;7355145;19;20482;-62
2023/03/15 03:44:46;;;;;;;;;;;;;;;6.15;85.42;101142.78;7357141;19;19994;-62
2023/03/15 03:47:12;;;;;;;;;;;;;;;6.11;85.72;101151.81;7353961;19;19930;-60
2023/03/15 03:49:39;;;;;;;;;;;;;;;6.08;85.68;101154.66;7355293;19;19926;-60
2023/03/15 03:52:06;;;;;;;;;;;;;;;6.04;86.10;101165.44;7354339;19;19926;-60
2023/03/15 03:54:34;;;;;;;;;;;;;;;6.08;86.81;101177.31;7352396;19;19930;-60
2023/03/15 03:57:01;;;;;;;;;;;;;;;6.12;86.31;101179.59;7359107;19;19929;-60
2023/03/15 03:59:28;;;;;;;;;;;;;;;6.14;86.23;101177.72;7349677;19;20403;-59
2023/03/15 04:01:55;;;;;;;;;;;;;;;6.13;86.10;101176.03;7354553;19;19922;-63
2023/03/15 04:04:22;;;;;;;;;;;;;;;6.16;86.20;101172.34;7353021;19;19915;-59
2023/03/15 04:06:49;;;;;;;;;;;;;;;6.17;86.73;101164.41;7357234;19;19946;-61
2023/03/15 04:09:16;;;;;;;;;;;;;;;6.15;86.11;101166.28;7354633;19;20441;-59
2023/03/15 04:11:43;;;;;;;;;;;;;;;6.11;85.82;101164.84;7356491;19;19938;-62
2023/03/15 04:14:11;;;;;;;;;;;;;;;6.06;85.67;101167.00;7355395;19;19926;-62
2023/03/15 04:16:38;;;;;;;;;;;;;;;6.07;86.10;101170.44;7357172;19;19930;-62
2023/03/15 04:19:06;;;;;;;;;;;;;;;6.08;86.34;101172.09;7355878;19;20403;-62
2023/03/15 04:21:33;;;;;;;;;;;;;;;6.10;86.75;101171.03;7354945;19;19927;-59
2023/03/15 04:24:00;;;;;;;;;;;;;;;6.13;86.20;101183.03;7353000;19;19919;-60
2023/03/15 04:26:27;;;;;;;;;;;;;;;6.15;85.66;101173.28;7355033;19;19919;-62
2023/03/15 04:28:55;;;;;;;;;;;;;;;6.14;85.41;101169.03;7353245;19;20579;-60
2023/03/15 04:31:25;;;;;;;;;;;;;;;6.13;85.84;101170.81;7357250;19;20267;-62
2023/03/15 04:33:53;;;;;;;;;;;;;;;6.12;85.58;101163.91;7357604;19;19919;-62
2023/03/15 04:36:20;;;;;;;;;;;;;;;6.13;85.95;101169.97;7357190;19;19918;-62
2023/03/15 04:38:48;;;;;;;;;;;;;;;6.14;86.17;101159.41;7352711;19;21126;-63
2023/03/15 04:41:16;;;;;;;;;;;;;;;6.17;85.96;101163.56;7357103;19;20319;-58
2023/03/15 04:43:43;;;;;;;;;;;;;;;6.15;85.42;101162.84;7363077;19;19923;-59
2023/03/15 04:46:10;;;;;;;;;;;;;;;6.11;85.18;101166.63;7361266;19;19922;-62
2023/03/15 04:48:37;;;;;;;;;;;;;;;6.07;85.05;101165.22;7360242;19;20203;-60
2023/03/15 04:51:04;;;;;;;;;;;;;;;6.03;85.25;101156.78;7360939;19;19927;-61
2023/03/15 04:53:31;;;;;;;;;;;;;;;6.04;85.78;101168.91;7357479;19;20230;-60
2023/03/15 04:55:59;;;;;;;;;;;;;;;6.01;86.39;101169.13;7361646;19;21203;-61
2023/03/15 04:58:30;;;;;;;;;;;;;;;6.00;86.46;101178.72;7361590;19;19995;-61
2023/03/15 05:00:56;;;;;;;;;;;;;;;6.02;86.52;101183.84;7357006;19;19915;-65
2023/03/15 05:03:24;;;;;;;;;;;;;;;6.04;87.80;101181.13;7358438;19;19993;-61
2023/03/15 05:05:50;;;;;;;;;;;;;;;6.01;87.84;101179.56;7362922;19;21621;-62
2023/03/15 05:08:17;;;;;;;;;;;;;;;5.99;87.24;101178.84;7358032;19;20089;-61
2023/03/15 05:10:44;;;;;;;;;;;;;;;5.95;86.68;101170.41;7362344;19;20996;-60
2023/03/15 05:13:11;;;;;;;;;;;;;;;5.94;86.57;101162.69;7362451;19;20011;-61
2023/03/15 05:15:38;;;;;;;;;;;;;;;5.90;86.43;101169.91;7360103;19;19919;-61
2023/03/15 05:18:05;;;;;;;;;;;;;;;5.85;86.14;101168.56;7361197;19;20015;-63
2023/03/15 05:20:32;;;;;;;;;;;;;;;5.86;86.86;101178.06;7358596;19;20542;-61
2023/03/15 05:23:00;;;;;;;;;;;;;;;5.88;88.80;101181.44;7361563;19;19923;-62
2023/03/15 05:25:27;;;;;;;;;;;;;;;5.88;88.54;101171.00;7357020;19;20148;-61
2023/03/15 05:27:54;;;;;;;;;;;;;;;5.85;88.63;101173.78;7359949;19;20628;-60
2023/03/15 05:30:21;;;;;;;;;;;;;;;5.87;89.57;101182.38;7358570;19;19914;-61
2023/03/15 05:32:48;;;;;;;;;;;;;;;5.82;88.86;101195.72;7361291;19;19945;-58
2023/03/15 05:35:15;;;;;;;;;;;;;;;5.77;88.10;101197.84;7359853;19;19966;-63
2023/03/15 05:37:42;;;;;;;;;;;;;;;5.79;88.29;101189.91;7361060;19;19919;-61
2023/03/15 05:40:10;;;;;;;;;;;;;;;5.79;88.22;101192.53;7357951;19;19922;-60
2023/03/15 05:42:37;;;;;;;;;;;;;;;5.81;89.02;101195.84;7361578;19;19957;-62
2023/03/15 05:45:04;;;;;;;;;;;;;;;5.81;88.35;101201.91;7357804;19;20287;-61
2023/03/15 05:47:31;;;;;;;;;;;;;;;5.79;88.22;101203.78;7359827;19;19926;-62
2023/03/15 05:49:59;;;;;;;;;;;;;;;5.80;88.13;101202.84;7359600;19;19983;-62
2023/03/15 05:52:26;;;;;;;;;;;;;;;5.84;88.62;101208.69;7357836;19;20156;-64
2023/03/15 05:54:53;;;;;;;;;;;;;;;5.83;88.94;101207.00;7354617;19;20308;-63
2023/03/15 05:57:20;;;;;;;;;;;;;;;5.80;88.54;101209.84;7360492;19;19927;-65
2023/03/15 05:59:47;;;;;;;;;;;;;;;5.80;88.17;101215.88;7360773;19;20378;-66
2023/03/15 06:02:14;;;;;;;;;;;;;;;5.81;88.18;101217.56;7352976;19;19958;-62
2023/03/15 06:04:41;;;;;;;;;;;;;;;5.81;88.16;101217.56;7360373;19;19922;-63
2023/03/15 06:07:08;;;;;;;;;;;;;;;5.83;88.41;101215.69;7357130;19;20002;-63
2023/03/15 06:09:35;;;;;;;;;;;;;;;5.82;88.40;101221.84;7358671;19;19932;-64
2023/03/15 06:12:02;;;;;;;;;;;;;;;5.84;88.38;101221.75;7360771;19;19957;-62
2023/03/15 06:14:29;;;;;;;;;;;;;;;5.85;88.69;101228.59;7359974;19;19958;-63
2023/03/15 06:16:56;;;;;;;;;;;;;;;5.86;88.34;101225.88;7359493;19;19923;-62
2023/03/15 06:19:23;;;;;;;;;;;;;;;5.84;88.68;101230.38;7356556;19;20285;-64
2023/03/15 06:21:50;;;;;;;;;;;;;;;5.79;88.51;101237.72;7361132;19;20352;-64
2023/03/15 06:24:17;;;;;;;;;;;;;;;5.78;88.99;101245.69;7357340;19;20347;-62
2023/03/15 06:26:44;;;;;;;;;;;;;;;5.78;90.06;101245.69;7359837;19;19918;-63
2023/03/15 06:29:11;;;;;;;;;;;;;;;5.78;90.08;101245.69;7358411;19;20434;-64
2023/03/15 06:31:38;;;;;;;;;;;;;;;5.76;89.74;101255.38;7359365;19;19948;-63
2023/03/15 06:34:05;;;;;;;;;;;;;;;5.78;89.94;101261.34;7359359;19;19923;-63
2023/03/15 06:36:32;;;;;;;;;;;;;;;5.78;89.98;101253.50;7359307;19;20686;-63
2023/03/15 06:39:01;;;;;;;;;;;;;;;5.77;89.59;101257.06;7357125;19;19939;-62
2023/03/15 06:41:29;;;;;;;;;;;;;;;5.83;89.99;101262.69;7361640;19;20561;-63
2023/03/15 06:43:56;;;;;;;;;;;;;;;5.90;90.39;101265.69;7357416;19;19922;-64
2023/03/15 06:46:23;;;;;;;;;;;;;;;5.89;89.66;101261.44;7360229;19;20952;-63
2023/03/15 06:48:50;;;;;;;;;;;;;;;5.89;89.49;101257.00;7357558;19;19929;-64
2023/03/15 06:51:17;;;;;;;;;;;;;;;5.94;89.96;101269.75;7360062;19;19998;-63
2023/03/15 06:53:44;;;;;;;;;;;;;;;5.97;89.64;101270.34;7355362;19;19918;-62
2023/03/15 06:56:11;;;;;;;;;;;;;;;6.02;89.13;101272.63;7357361;19;20551;-63
2023/03/15 06:58:39;;;;;;;;;;;;;;;6.01;88.33;101268.34;7359807;19;19937;-64
2023/03/15 07:01:06;;;;;;;;;;;;;;;6.05;88.35;101266.34;7355446;19;20542;-63
2023/03/15 07:03:33;;;;;;;;;;;;;;;6.10;89.29;101270.28;7351245;19;20214;-64
2023/03/15 07:06:00;;;;;;;;;;;;;;;6.17;89.27;101270.66;7354987;19;19922;-62
2023/03/15 07:08:27;;;;;;;;;;;;;;;6.21;88.70;101279.94;7353033;19;19923;-63
2023/03/15 07:10:54;;;;;;;;;;;;;;;6.24;88.39;101282.34;7358340;19;19934;-62
2023/03/15 07:13:22;;;;;;;;;;;;;;;6.29;88.15;101291.50;7358267;19;19933;-67
2023/03/15 07:15:51;;;;;;;;;;;;;;;6.32;87.87;101290.44;7357170;19;19915;-63
2023/03/15 07:18:19;;;;;;;;;;;;;;;6.35;87.66;101291.03;7355380;19;19918;-65
2023/03/15 07:20:46;;;;;;;;;;;;;;;6.37;87.33;101290.91;7358036;19;19941;-64
2023/03/15 07:23:13;;;;;;;;;;;;;;;6.39;87.88;101292.50;7356180;19;19923;-63
2023/03/15 07:25:41;;;;;;;;;;;;;;;6.42;87.66;101292.25;7355855;19;20597;-66
2023/03/15 07:28:20;;;;;;;;;;;;;;;6.53;88.17;101293.22;7358270;19;19949;-64
2023/03/15 07:30:51;;;;;;;;;;;;;;;6.76;87.48;101308.00;7355640;19;19922;-63
2023/03/15 07:33:21;;;;;;;;;;;;;;;7.00;86.21;101311.38;7357089;19;20162;-64
2023/03/15 07:35:49;;;;;;;;;;;;;;;7.04;84.77;101310.19;7355563;19;19914;-62
2023/03/15 07:38:17;;;;;;;;;;;;;;;7.08;84.97;101313.38;7356687;19;20651;-62
2023/03/15 07:40:44;;;;;;;;;;;;;;;7.13;85.65;101313.88;7356826;19;19951;-61
2023/03/15 07:43:11;;;;;;;;;;;;;;;7.39;84.44;101314.47;7357867;19;20027;-62
2023/03/15 07:45:39;;;;;;;;;;;;;;;7.60;83.39;101307.53;7356747;19;19919;-63
2023/03/15 07:48:06;;;;;;;;;;;;;;;7.77;80.93;101311.44;7356747;19;19923;-63
2023/03/15 07:50:33;;;;;;;;;;;;;;;8.00;78.99;101310.41;7357284;19;19922;-64
2023/03/15 07:53:02;;;;;;;;;;;;;;;8.21;79.31;101311.28;7356527;19;19919;-63
2023/03/15 07:55:30;;;;;;;;;;;;;;;8.23;77.94;101311.97;7355725;19;19926;-63
2023/03/15 07:57:57;;;;;;;;;;;;;;;8.38;78.80;101302.06;7353536;19;20195;-63
2023/03/15 08:00:26;;;;;;;;;;;;;;;8.42;77.44;101306.94;7356920;19;20086;-63
2023/03/15 08:02:54;;;;;;;;;;;;;;;8.33;76.75;101307.66;7353446;19;19919;-63
2023/03/15 08:05:21;;;;;;;;;;;;;;;8.32;77.58;101298.16;7352128;19;19949;-64
2023/03/15 08:07:48;;;;;;;;;;;;;;;8.32;80.64;101290.31;7355607;19;19926;-63
2023/03/15 08:10:16;;;;;;;;;;;;;;;8.27;79.19;101288.97;7353366;19;19922;-63
2023/03/15 08:12:43;;;;;;;;;;;;;;;8.21;79.17;101286.84;7357389;19;19967;-63
2023/03/15 08:15:11;;;;;;;;;;;;;;;8.15;78.16;101288.19;7354855;19;19927;-64
2023/03/15 08:17:39;;;;;;;;;;;;;;;8.14;78.71;101294.38;7360516;19;19922;-63
2023/03/15 08:20:10;;;;;;;;;;;;;;;8.09;78.56;101289.53;7378368;19;19923;-64
2023/03/15 08:22:37;;;;;;;;;;;;;;;8.16;79.50;101289.84;7370947;19;19990;-64
2023/03/15 08:25:05;;;;;;;;;;;;;;;8.32;80.25;101297.34;7361162;19;19923;-63
2023/03/15 08:27:32;;;;;;;;;;;;;;;8.51;79.51;101298.28;7364713;19;19926;-63
2023/03/15 08:30:00;;;;;;;;;;;;;;;8.73;77.96;101296.50;7362209;19;19919;-63
2023/03/15 08:32:27;;;;;;;;;;;;;;;8.88;77.02;101306.53;7363918;19;20454;-64
2023/03/15 08:34:55;;;;;;;;;;;;;;;8.93;76.63;101304.34;7363579;19;20399;-63
2023/03/15 08:37:23;;;;;;;;;;;;;;;8.86;75.79;101311.06;7361971;19;19923;-63
2023/03/15 08:39:59;;;;;;;;;;;;;;;8.86;76.53;101310.22;7362501;19;20025;-62
2023/03/15 08:42:27;;;;;;;;;;;;;;;8.87;77.44;101315.38;7365239;19;20538;-65
2023/03/15 08:44:58;;;;;;;;;;;;;;;8.79;74.57;101309.91;7357719;19;19927;-62
2023/03/15 08:47:25;;;;;;;;;;;;;;;8.78;74.51;101310.06;7359628;19;19922;-63
2023/03/15 08:49:52;;;;;;;;;;;;;;;8.79;75.48;101315.16;7356998;19;19911;-64
2023/03/15 08:52:20;;;;;;;;;;;;;;;8.79;75.58;101309.91;7361847;19;20191;-64
2023/03/15 08:54:47;;;;;;;;;;;;;;;8.82;76.25;101312.28;7357566;19;19938;-64
2023/03/15 08:57:15;;;;;;;;;;;;;;;8.82;75.66;101307.06;7360681;19;19917;-63
2023/03/15 08:59:42;;;;;;;;;;;;;;;8.85;75.07;101311.19;7361720;19;20286;-63
2023/03/15 09:02:12;;;;;;;;;;;;;;;8.86;74.98;101312.84;7362535;19;19914;-63
2023/03/15 09:04:39;;;;;;;;;;;;;;;8.85;73.54;101309.41;7357060;19;19919;-64
2023/03/15 09:07:06;;;;;;;;;;;;;;;8.83;73.51;101310.50;7363872;19;20364;-63
2023/03/15 09:12:07;;;;;;;;;;;;;;;8.80;72.86;101308.13;7360609;19;20517;-64
2023/03/15 09:14:35;;;;;;;;;;;;;;;8.81;73.84;101305.38;7362330;19;19922;-63
2023/03/15 09:17:02;;;;;;;;;;;;;;;8.87;73.77;101301.41;7362081;19;20315;-66
2023/03/15 09:19:31;;;;;;;;;;;;;;;8.91;73.50;101305.44;7362035;19;20018;-63
2023/03/15 09:21:58;;;;;;;;;;;;;;;8.90;72.60;101298.50;7361270;19;20465;-64
2023/03/15 09:24:42;;;;;;;;;;;;;;;8.91;72.43;101298.38;7362159;19;19941;-65
2023/03/15 09:27:16;;;;;;;;;;;;;;;8.94;72.69;101307.78;7361104;19;19918;-64
2023/03/15 09:29:51;;;;;;;;;;;;;;;8.96;72.84;101311.13;7358948;19;19911;-66
2023/03/15 09:32:19;;;;;;;;;;;;;;;9.02;74.11;101310.59;7358725;19;20542;-65
2023/03/15 09:34:47;;;;;;;;;;;;;;;9.04;73.37;101311.28;7362232;19;20358;-67
2023/03/15 09:37:14;;;;;;;;;;;;;;;9.06;71.98;101306.75;7361369;19;19999;-63
2023/03/15 09:39:41;;;;;;;;;;;;;;;9.13;72.35;101309.69;7359401;19;19930;-65
2023/03/15 09:42:11;;;;;;;;;;;;;;;9.16;71.96;101309.41;7363080;19;19914;-64
2023/03/15 09:44:44;;;;;;;;;;;;;;;9.19;71.89;101310.00;7361197;19;19967;-64
2023/03/15 09:47:13;;;;;;;;;;;;;;;9.28;71.08;101316.25;7358370;19;19926;-64
2023/03/15 09:49:42;;;;;;;;;;;;;;;9.36;70.91;101321.66;7356395;19;20339;-65
2023/03/15 09:52:15;;;;;;;;;;;;;;;9.43;69.67;101317.53;7362421;19;19945;-67
2023/03/15 09:54:49;;;;;;;;;;;;;;;9.47;69.15;101320.72;7358990;19;19926;-64
2023/03/15 09:57:23;;;;;;;;;;;;;;;9.48;68.80;101320.59;7359360;19;20323;-65
2023/03/15 09:59:53;;;;;;;;;;;;;;;9.52;68.17;101326.41;7359434;19;19918;-63
2023/03/15 10:02:23;;;;;;;;;;;;;;;9.57;67.78;101311.06;7357733;19;19946;-64
2023/03/15 10:04:54;;;;;;;;;;;;;;;9.63;67.63;101329.78;7355026;19;19926;-64
2023/03/15 10:07:23;;;;;;;;;;;;;;;9.65;66.92;101314.69;7355044;19;19915;-66
2023/03/15 10:09:51;;;;;;;;;;;;;;;9.72;67.06;101321.06;7358232;19;19915;-63
2023/03/15 10:12:25;;;;;;;;;;;;;;;9.75;65.76;101322.63;7357487;19;20356;-64
2023/03/15 10:14:54;;;;;;;;;;;;;;;9.83;65.65;101325.38;7359293;19;19919;-66
2023/03/15 10:17:28;;;;;;;;;;;;;;;9.92;65.44;101324.56;7358232;19;19922;-63
2023/03/15 10:20:00;;;;;;;;;;;;;;;10.02;63.89;101319.31;7360310;19;19942;-64
2023/03/15 10:22:32;;;;;;;;;;;;;;;10.11;64.17;101314.06;7357423;19;19922;-62
2023/03/15 10:25:06;;;;;;;;;;;;;;;10.15;63.58;101317.28;7357036;19;19930;-63
2023/03/15 10:27:39;;;;;;;;;;;;;;;10.23;63.08;101314.81;7358448;19;19926;-63
2023/03/15 10:30:17;;;;;;;;;;;;;;;10.29;62.43;101315.09;7355417;19;19926;-62
2023/03/15 10:33:04;;;;;;;;;;;;;;;10.33;60.14;101317.41;7356152;19;19925;-63
2023/03/15 10:39:04;;;;;;;;;;;;;;;10.40;58.89;101315.91;7346232;19;19937;-65
2023/03/15 10:41:35;;;;;;;;;;;;;;;10.41;58.73;101314.94;7357794;19;19982;-62
2023/03/15 10:44:04;;;;;;;;;;;;;;;10.47;57.92;101322.25;7358061;19;19958;-63
2023/03/15 10:46:32;;;;;;;;;;;;;;;10.54;57.70;101328.63;7358007;19;19933;-64
2023/03/15 10:49:10;;;;;;;;;;;;;;;10.59;57.73;101335.13;7355049;19;19936;-62
2023/03/15 10:51:40;;;;;;;;;;;;;;;10.64;58.39;101329.44;7357141;19;19958;-63
2023/03/15 10:54:11;;;;;;;;;;;;;;;10.66;58.08;101330.97;7353459;19;19930;-63
2023/03/15 10:56:41;;;;;;;;;;;;;;;10.69;58.47;101329.84;7357883;19;20335;-63
2023/03/15 10:59:14;;;;;;;;;;;;;;;10.70;58.55;101336.78;7359063;19;19918;-64
2023/03/15 11:01:46;;;;;;;;;;;;;;;10.75;59.21;101326.66;7355514;19;20411;-62
2023/03/15 11:04:15;;;;;;;;;;;;;;;10.78;58.44;101331.63;7355949;19;19923;-63
2023/03/15 11:06:44;;;;;;;;;;;;;;;10.83;58.70;101325.94;7353124;19;20537;-63
2023/03/15 11:09:13;;;;;;;;;;;;;;;10.84;58.77;101325.81;7354013;19;19923;-63
2023/03/15 11:11:43;;;;;;;;;;;;;;;10.89;58.94;101323.56;7355439;19;19923;-63
2023/03/15 11:14:11;;;;;;;;;;;;;;;10.93;58.24;101324.13;7352424;19;19934;-62
2023/03/15 11:16:38;;;;;;;;;;;;;;;10.94;58.26;101323.16;7354722;19;19922;-63
2023/03/15 11:19:14;;;;;;;;;;;;;;;11.00;58.63;101327.84;7356318;19;20272;-63
2023/03/15 11:21:41;;;;;;;;;;;;;;;11.01;56.86;101313.72;7357483;19;19925;-64
2023/03/15 11:24:18;;;;;;;;;;;;;;;11.04;56.25;101316.03;7352970;19;19923;-63
2023/03/15 11:26:50;;;;;;;;;;;;;;;11.07;55.76;101315.78;7358766;19;19929;-61
2023/03/15 11:29:21;;;;;;;;;;;;;;;11.12;56.23;101318.81;7356189;19;19944;-61
2023/03/15 11:31:50;;;;;;;;;;;;;;;11.17;56.73;101307.84;7354974;19;19979;-60
2023/03/15 11:34:20;;;;;;;;;;;;;;;11.14;54.75;101316.84;7355464;19;20247;-60
2023/03/15 11:36:49;;;;;;;;;;;;;;;11.14;56.14;101312.41;7354795;19;20463;-61
2023/03/15 11:39:38;;;;;;;;;;;;;;;11.17;57.63;101319.22;7354660;19;19963;-60
2023/03/15 11:42:09;;;;;;;;;;;;;;;11.17;56.07;101311.31;7356622;19;19915;-61
2023/03/15 11:44:39;;;;;;;;;;;;;;;11.23;55.80;101321.25;7356137;19;20351;-61
2023/03/15 11:47:11;;;;;;;;;;;;;;;11.24;54.69;101322.91;7356989;19;19943;-64
2023/03/15 11:49:42;;;;;;;;;;;;;;;11.22;54.25;101316.97;7353785;19;19938;-62
2023/03/15 11:52:09;;;;;;;;;;;;;;;11.23;54.16;101315.97;7357083;19;20367;-62
2023/03/15 11:54:39;;;;;;;;;;;;;;;11.27;55.15;101312.09;7360145;19;19930;-66
2023/03/15 11:57:26;;;;;;;;;;;;;;;11.35;55.46;101301.66;7362348;19;19950;-61
2023/03/15 11:59:54;;;;;;;;;;;;;;;11.39;53.53;101294.28;7362496;19;19923;-61
2023/03/15 12:02:21;;;;;;;;;;;;;;;11.35;53.35;101304.28;7362021;19;20331;-60
2023/03/15 12:04:49;;;;;;;;;;;;;;;11.33;53.18;101303.59;7362428;19;19959;-62
2023/03/15 12:07:17;;;;;;;;;;;;;;;11.36;53.63;101311.22;7358519;19;19944;-63
2023/03/15 12:09:46;;;;;;;;;;;;;;;11.41;54.21;101302.88;7356717;19;20534;-62
2023/03/15 12:12:17;;;;;;;;;;;;;;;11.45;52.82;101298.97;7362371;19;19955;-63
2023/03/15 12:14:44;;;;;;;;;;;;;;;11.49;52.75;101308.22;7362558;19;20616;-64
2023/03/15 12:17:16;;;;;;;;;;;;;;;11.53;53.19;101296.41;7360210;19;19923;-61
2023/03/15 12:19:43;;;;;;;;;;;;;;;11.53;51.67;101294.59;7362020;19;19927;-62
2023/03/15 12:22:14;;;;;;;;;;;;;;;11.55;52.30;101283.94;7360146;19;19929;-61
2023/03/15 12:24:43;;;;;;;;;;;;;;;11.57;50.94;101277.53;7360933;19;19927;-62
2023/03/15 12:27:14;;;;;;;;;;;;;;;11.60;50.75;101273.78;7361748;19;20368;-64
2023/03/15 12:29:43;;;;;;;;;;;;;;;11.59;50.84;101267.66;7364670;19;20804;-63
2023/03/15 12:32:13;;;;;;;;;;;;;;;11.63;51.72;101262.13;7360617;19;19929;-63
2023/03/15 12:34:43;;;;;;;;;;;;;;;11.64;52.90;101256.69;7362296;19;20241;-60
2023/03/15 12:37:13;;;;;;;;;;;;;;;11.63;53.59;101255.00;7357165;19;20225;-61
2023/03/15 12:39:44;;;;;;;;;;;;;;;11.66;52.79;101257.38;7359418;19;19914;-64
2023/03/15 12:42:13;;;;;;;;;;;;;;;11.67;52.58;101264.31;7360250;19;19914;-63
2023/03/15 12:44:41;;;;;;;;;;;;;;;11.69;51.90;101257.06;7361928;19;19915;-61
2023/03/15 12:47:10;;;;;;;;;;;;;;;11.69;53.48;101256.22;7362378;19;19919;-61
2023/03/15 12:49:41;;;;;;;;;;;;;;;11.66;52.96;101259.16;7359617;19;19922;-62
2023/03/15 12:52:13;;;;;;;;;;;;;;;11.67;52.79;101255.56;7360148;19;19919;-63
2023/03/15 12:54:47;;;;;;;;;;;;;;;11.70;52.17;101247.34;7358072;19;21525;-62
2023/03/15 12:57:20;;;;;;;;;;;;;;;11.68;50.71;101242.25;7360369;19;19923;-60